createdAt,value
2022-08-05T00:01:36.018Z,38.61
2022-08-05T00:04:05.228Z,38.57
2022-08-05T00:06:35.901Z,39.18
2022-08-05T00:09:04.701Z,39.11
2022-08-05T00:11:49.057Z,39.49
2022-08-05T00:14:17.434Z,39.30
2022-08-05T00:16:52.110Z,39.11
2022-08-05T00:19:24.966Z,39.61
2022-08-05T00:22:00.212Z,39.64
2022-08-05T00:24:30.658Z,39.81
2022-08-05T00:26:59.491Z,39.64
2022-08-05T00:29:27.589Z,39.79
2022-08-05T00:32:12.790Z,40.15
2022-08-05T00:35:03.564Z,40.48
2022-08-05T00:37:35.770Z,40.53
2022-08-05T00:40:26.960Z,40.51
2022-08-05T00:43:00.562Z,40.74
2022-08-05T00:45:43.138Z,41.43
2022-08-05T00:48:12.811Z,41.07
2022-08-05T00:50:44.064Z,40.90
2022-08-05T00:54:00.253Z,41.31
2022-08-05T00:55:59.098Z,41.57
2022-08-05T00:58:27.419Z,42.02
2022-08-05T01:00:55.206Z,42.28
2022-08-05T01:03:23.488Z,42.42
2022-08-05T01:05:51.594Z,42.62
2022-08-05T01:08:40.292Z,43.30
2022-08-05T01:11:13.680Z,43.04
2022-08-05T01:13:59.775Z,43.03
2022-08-05T01:17:04.705Z,42.79
2022-08-05T01:20:00.829Z,43.34
2022-08-05T01:23:14.322Z,43.55
2022-08-05T01:26:06.838Z,43.52
2022-08-05T01:28:56.899Z,43.61
2022-08-05T01:31:53.811Z,43.97
2022-08-05T01:34:33.482Z,43.63
2022-08-05T01:37:24.546Z,43.91
2022-08-05T01:39:54.944Z,43.62
2022-08-05T01:42:28.100Z,44.17
2022-08-05T01:44:57.349Z,44.38
2022-08-05T01:47:38.773Z,45.55
2022-08-05T01:50:15.576Z,45.60
2022-08-05T01:52:44.489Z,46.29
2022-08-05T01:55:13.033Z,46.06
2022-08-05T01:58:18.779Z,47.39
2022-08-05T02:00:31.851Z,47.21
2022-08-05T02:03:03.903Z,48.09
2022-08-05T02:05:34.246Z,48.32
2022-08-05T02:08:03.478Z,48.73
2022-08-05T02:10:42.080Z,49.29
2022-08-05T02:13:17.794Z,49.81
2022-08-05T02:15:47.764Z,50.04
2022-08-05T02:18:31.653Z,50.69
2022-08-05T02:21:15.302Z,51.27
2022-08-05T02:23:44.783Z,51.05
2022-08-05T02:26:17.189Z,51.53
2022-08-05T02:28:46.253Z,52.58
2022-08-05T02:31:22.473Z,52.38
2022-08-05T02:33:57.409Z,53.25
2022-08-05T02:36:27.549Z,52.85
2022-08-05T02:38:55.896Z,53.12
2022-08-05T02:41:28.923Z,53.07
2022-08-05T02:44:11.958Z,53.20
2022-08-05T02:46:53.474Z,53.68
2022-08-05T02:49:26.446Z,54.67
2022-08-05T02:52:02.906Z,54.20
2022-08-05T02:54:34.857Z,54.60
2022-08-05T02:57:09.802Z,55.28
2022-08-05T02:59:54.544Z,56.21
2022-08-05T03:02:25.205Z,55.97
2022-08-05T03:04:55.515Z,55.71
2022-08-05T03:08:01.213Z,56.25
2022-08-05T03:10:24.475Z,57.05
2022-08-05T03:12:54.186Z,56.58
2022-08-05T03:15:23.641Z,57.42
2022-08-05T03:17:55.489Z,57.61
2022-08-05T03:20:24.436Z,57.83
2022-08-05T03:22:52.725Z,57.61
2022-08-05T03:25:33.445Z,58.09
2022-08-05T03:28:10.850Z,58.67
2022-08-05T03:30:41.277Z,58.83
2022-08-05T03:33:09.594Z,58.81
2022-08-05T03:35:41.012Z,59.02
2022-08-05T03:38:11.728Z,58.78
2022-08-05T03:40:48.465Z,59.01
2022-08-05T03:44:08.731Z,59.67
2022-08-05T03:46:04.505Z,59.00
2022-08-05T03:48:35.203Z,59.51
2022-08-05T03:52:37.822Z,59.63
2022-08-05T03:55:50.264Z,60.14
2022-08-05T03:56:47.079Z,60.05
2022-08-05T03:59:20.721Z,59.58
2022-08-05T04:01:49.979Z,59.79
2022-08-05T04:04:21.136Z,59.50
2022-08-05T04:06:51.305Z,59.46
2022-08-05T04:09:25.841Z,59.76
2022-08-05T04:11:56.428Z,59.46
2022-08-05T04:14:30.405Z,60.00
2022-08-05T04:16:59.811Z,59.53
2022-08-05T04:19:28.687Z,59.28
2022-08-05T04:22:09.301Z,59.95
2022-08-05T04:24:44.463Z,60.05
2022-08-05T04:27:19.468Z,59.09
2022-08-05T04:30:07.985Z,60.24
2022-08-05T04:32:36.456Z,60.24
2022-08-05T04:35:05.066Z,60.44
2022-08-05T04:38:01.647Z,60.17
2022-08-05T04:40:20.355Z,59.71
2022-08-05T04:42:47.474Z,59.56
2022-08-05T04:45:31.165Z,59.84
2022-08-05T04:48:16.586Z,60.03
2022-08-05T04:51:02.773Z,60.22
2022-08-05T04:53:38.921Z,60.15
2022-08-05T04:56:32.912Z,59.96
2022-08-05T04:58:56.457Z,59.61
2022-08-05T05:02:05.971Z,59.72
2022-08-05T05:04:11.122Z,59.67
2022-08-05T05:06:44.471Z,60.02
2022-08-05T05:09:14.306Z,59.80
2022-08-05T05:11:55.422Z,59.49
2022-08-05T05:14:31.469Z,59.37
2022-08-05T05:17:03.378Z,59.44
2022-08-05T05:19:36.839Z,59.37
2022-08-05T05:22:22.718Z,59.40
2022-08-05T05:24:57.874Z,59.78
2022-08-05T05:27:45.250Z,59.15
2022-08-05T05:30:29.316Z,59.40
2022-08-05T05:33:00.840Z,59.88
2022-08-05T05:35:34.418Z,59.75
2022-08-05T05:38:09.254Z,60.16
2022-08-05T05:40:48.291Z,60.16
2022-08-05T05:43:27.516Z,60.61
2022-08-05T05:46:12.265Z,61.13
2022-08-05T05:48:43.926Z,61.52
2022-08-05T05:51:15.726Z,61.26
2022-08-05T05:53:54.080Z,60.90
2022-08-05T05:56:32.240Z,60.29
2022-08-05T05:59:06.741Z,60.20
2022-08-05T06:01:37.406Z,60.56
2022-08-05T06:04:12.196Z,60.88
2022-08-05T06:06:47.798Z,60.82
2022-08-05T06:09:26.694Z,60.87
2022-08-05T06:12:03.970Z,60.65
2022-08-05T06:14:31.503Z,60.02
2022-08-05T06:16:59.022Z,59.98
2022-08-05T06:19:34.447Z,59.97
2022-08-05T06:22:07.228Z,59.74
2022-08-05T06:24:35.336Z,60.53
2022-08-05T06:27:03.900Z,61.61
2022-08-05T06:29:46.447Z,61.11
2022-08-05T06:32:25.292Z,61.61
2022-08-05T06:34:59.278Z,61.26
2022-08-05T06:37:52.347Z,61.24
2022-08-05T06:40:18.477Z,61.74
2022-08-05T06:42:52.273Z,61.84
2022-08-05T06:45:44.466Z,61.00
2022-08-05T06:48:36.741Z,60.15
2022-08-05T06:50:56.004Z,59.25
2022-08-05T06:53:28.438Z,58.08
2022-08-05T06:56:00.138Z,57.73
2022-08-05T06:58:35.437Z,57.08
2022-08-05T07:01:05.766Z,56.92
2022-08-05T07:03:33.876Z,56.66
2022-08-05T07:06:05.626Z,57.06
2022-08-05T07:08:47.598Z,56.41
2022-08-05T07:11:16.048Z,55.85
2022-08-05T07:14:02.584Z,56.04
2022-08-05T07:18:00.012Z,55.04
2022-08-05T07:22:28.373Z,54.99
2022-08-05T07:25:09.476Z,56.11
2022-08-05T07:27:58.558Z,56.27
2022-08-05T07:30:32.398Z,55.46
2022-08-05T07:33:05.104Z,55.73
2022-08-05T07:36:01.749Z,55.53
2022-08-05T07:38:34.513Z,55.53
2022-08-05T07:42:06.763Z,55.37
2022-08-05T07:43:56.390Z,55.08
2022-08-05T07:46:28.514Z,56.41
2022-08-05T07:49:02.656Z,56.54
2022-08-05T07:51:36.237Z,55.87
2022-08-05T07:54:08.493Z,55.22
2022-08-05T07:56:59.865Z,55.55
2022-08-05T07:59:38.653Z,56.06
2022-08-05T08:02:15.641Z,56.39
2022-08-05T08:04:47.311Z,56.49
2022-08-05T08:07:15.046Z,56.69
2022-08-05T08:09:43.176Z,57.08
2022-08-05T08:12:27.454Z,57.30
2022-08-05T08:14:57.789Z,57.88
2022-08-05T08:17:30.435Z,58.15
2022-08-05T08:20:42.878Z,57.66
2022-08-05T08:22:50.962Z,58.83
2022-08-05T08:25:27.126Z,59.00
2022-08-05T08:28:05.444Z,59.17
2022-08-05T08:30:48.045Z,58.47
2022-08-05T08:33:17.545Z,57.26
2022-08-05T08:35:52.937Z,57.39
2022-08-05T08:38:35.262Z,56.96
2022-08-05T08:41:06.921Z,56.75
2022-08-05T08:45:19.194Z,56.87
2022-08-05T08:46:24.287Z,56.10
2022-08-05T08:49:07.886Z,57.03
2022-08-05T08:52:03.855Z,56.34
2022-08-05T08:54:27.906Z,56.15
2022-08-05T08:56:56.578Z,56.52
2022-08-05T08:59:27.571Z,56.24
2022-08-05T09:01:57.300Z,56.56
2022-08-05T09:04:30.178Z,56.16
2022-08-05T09:06:58.455Z,56.86
2022-08-05T09:09:34.746Z,57.47
2022-08-05T09:12:14.424Z,57.17
2022-08-05T09:14:59.092Z,59.37
2022-08-05T09:17:42.442Z,59.47
2022-08-05T09:20:11.621Z,60.23
2022-08-05T09:23:07.913Z,59.85
2022-08-05T09:26:03.367Z,58.76
2022-08-05T09:28:32.044Z,58.73
2022-08-05T09:31:22.277Z,58.44
2022-08-05T09:34:00.996Z,57.23
2022-08-05T09:36:54.167Z,57.42
2022-08-05T09:39:41.470Z,57.20
2022-08-05T09:42:17.248Z,57.02
2022-08-05T09:44:52.667Z,56.18
2022-08-05T09:47:35.181Z,56.20
2022-08-05T09:50:18.241Z,56.75
2022-08-05T09:53:01.792Z,57.14
2022-08-05T09:55:57.088Z,57.99
2022-08-05T09:58:23.903Z,57.94
2022-08-05T10:01:13.513Z,58.41
2022-08-05T10:04:00.283Z,57.81
2022-08-05T10:06:28.143Z,58.56
2022-08-05T10:08:56.254Z,58.67
2022-08-05T10:11:23.954Z,59.78
2022-08-05T10:13:58.513Z,59.85
2022-08-05T10:16:37.949Z,59.90
2022-08-05T10:19:13.610Z,60.53
2022-08-05T10:21:41.180Z,61.08
2022-08-05T10:24:13.153Z,60.47
2022-08-05T10:26:51.244Z,60.58
2022-08-05T10:29:24.114Z,60.54
2022-08-05T10:32:53.841Z,59.61
2022-08-05T10:35:00.568Z,59.48
2022-08-05T10:37:40.047Z,59.87
2022-08-05T10:40:57.783Z,60.82
2022-08-05T10:43:45.476Z,61.24
2022-08-05T10:46:14.468Z,61.16
2022-08-05T10:48:56.501Z,61.55
2022-08-05T10:51:28.969Z,61.59
2022-08-05T10:54:23.120Z,61.51
2022-08-05T10:56:56.498Z,61.17
2022-08-05T11:00:03.710Z,62.70
2022-08-05T11:02:37.490Z,61.18
2022-08-05T11:05:10.261Z,61.85
2022-08-05T11:08:22.162Z,60.97
2022-08-05T11:11:00.941Z,58.94
2022-08-05T11:13:57.892Z,58.83
2022-08-05T11:16:33.858Z,58.70
2022-08-05T11:20:16.878Z,58.03
2022-08-05T11:22:39.859Z,57.62
2022-08-05T11:26:04.282Z,56.94
2022-08-05T11:28:25.812Z,53.07
2022-08-05T11:31:01.476Z,52.19
2022-08-05T11:33:47.896Z,49.70
2022-08-05T11:36:33.923Z,49.60
2022-08-05T11:39:01.986Z,48.96
2022-08-05T11:41:56.547Z,48.51
2022-08-05T11:44:40.420Z,47.03
2022-08-05T11:47:11.044Z,46.29
2022-08-05T11:49:43.019Z,45.77
2022-08-05T11:52:11.391Z,46.44
2022-08-05T11:54:40.464Z,45.71
2022-08-05T11:57:24.785Z,45.07
2022-08-05T11:59:53.269Z,44.15
2022-08-05T12:02:31.721Z,43.29
2022-08-05T12:05:01.450Z,43.84
2022-08-05T12:08:08.263Z,44.45
2022-08-05T12:10:43.691Z,45.10
2022-08-05T12:13:16.515Z,44.01
2022-08-05T12:15:49.788Z,42.58
2022-08-05T12:18:18.981Z,43.82
2022-08-05T12:20:47.936Z,43.28
2022-08-05T12:23:16.507Z,42.91
2022-08-05T12:25:56.778Z,41.66
2022-08-05T12:28:34.252Z,41.46
2022-08-05T12:31:02.219Z,40.76
2022-08-05T12:33:36.554Z,40.29
2022-08-05T12:36:08.627Z,40.37
2022-08-05T12:38:41.121Z,39.56
2022-08-05T12:41:17.476Z,38.06
2022-08-05T12:43:55.488Z,39.27
2022-08-05T12:46:29.562Z,38.59
2022-08-05T12:49:14.559Z,38.03
2022-08-05T12:52:12.982Z,38.23
2022-08-05T12:54:33.185Z,37.75
2022-08-05T12:57:03.789Z,37.87
2022-08-05T13:00:08.481Z,37.46
2022-08-05T13:02:30.355Z,36.62
2022-08-05T13:04:58.719Z,37.18
2022-08-05T13:07:55.930Z,36.97
2022-08-05T13:10:15.060Z,37.27
2022-08-05T13:12:51.137Z,38.34
2022-08-05T13:15:42.203Z,40.35
2022-08-05T13:18:21.276Z,40.59
2022-08-05T13:20:51.167Z,42.47
2022-08-05T13:23:22.830Z,42.16
2022-08-05T13:25:59.435Z,42.16
2022-08-05T13:28:28.451Z,41.92
2022-08-05T13:30:57.079Z,41.56
2022-08-05T13:34:22.288Z,40.17
2022-08-05T13:36:14.583Z,40.33
2022-08-05T13:38:42.777Z,40.39
2022-08-05T13:41:11.490Z,39.22
2022-08-05T13:43:45.512Z,39.51
2022-08-05T13:46:44.027Z,38.50
2022-08-05T13:49:12.642Z,38.07
2022-08-05T13:51:46.729Z,37.44
2022-08-05T13:54:16.071Z,39.37
2022-08-05T13:56:45.093Z,40.54
2022-08-05T13:59:20.277Z,41.22
2022-08-05T14:01:58.090Z,41.66
2022-08-05T14:04:56.078Z,42.52
2022-08-05T14:08:03.040Z,41.74
2022-08-05T14:10:30.823Z,41.28
2022-08-05T14:12:58.862Z,41.85
2022-08-05T14:16:07.404Z,41.25
2022-08-05T14:18:18.444Z,41.51
2022-08-05T14:20:49.013Z,41.04
2022-08-05T14:23:25.237Z,39.36
2022-08-05T14:25:58.967Z,39.95
2022-08-05T14:28:28.202Z,40.82
2022-08-05T14:30:56.604Z,40.24
2022-08-05T14:33:24.156Z,40.08
2022-08-05T14:35:54.044Z,41.13
2022-08-05T14:38:32.405Z,43.15
2022-08-05T14:41:03.593Z,44.37
2022-08-05T14:43:59.371Z,45.26
2022-08-05T14:46:28.015Z,46.06
2022-08-05T14:49:06.608Z,46.41
2022-08-05T14:51:42.641Z,47.53
2022-08-05T14:54:28.638Z,48.21
2022-08-05T14:56:57.555Z,48.69
2022-08-05T14:59:24.990Z,49.02
2022-08-05T15:01:57.644Z,49.17
2022-08-05T15:04:27.443Z,50.12
2022-08-05T15:06:56.433Z,50.96
2022-08-05T15:09:51.530Z,51.74
2022-08-05T15:12:11.588Z,51.63
2022-08-05T15:14:50.494Z,52.69
2022-08-05T15:17:46.398Z,53.05
2022-08-05T15:20:15.630Z,54.39
2022-08-05T15:22:45.923Z,55.63
2022-08-05T15:25:23.461Z,55.85
2022-08-05T15:28:07.337Z,55.86
2022-08-05T15:30:36.722Z,56.77
2022-08-05T15:33:04.507Z,57.13
2022-08-05T15:35:36.107Z,57.03
2022-08-05T15:38:33.631Z,57.77
2022-08-05T15:41:04.502Z,57.85
2022-08-05T15:43:45.912Z,57.30
2022-08-05T15:46:14.228Z,57.50
2022-08-05T15:48:52.658Z,58.18
2022-08-05T15:52:04.228Z,59.92
2022-08-05T15:54:16.733Z,60.20
2022-08-05T15:56:43.931Z,60.65
2022-08-05T15:59:21.954Z,60.90
2022-08-05T16:01:52.914Z,61.52
2022-08-05T16:04:25.673Z,62.62
2022-08-05T16:06:55.696Z,62.79
2022-08-05T16:09:24.009Z,63.51
2022-08-05T16:11:53.170Z,63.81
2022-08-05T16:14:22.379Z,64.30
2022-08-05T16:16:50.100Z,63.84
2022-08-05T16:19:25.829Z,63.85
2022-08-05T16:22:05.245Z,63.65
2022-08-05T16:24:41.454Z,58.56
2022-08-05T16:27:18.668Z,55.27
2022-08-05T16:29:50.291Z,56.28
2022-08-05T16:32:28.537Z,57.74
2022-08-05T16:34:57.556Z,59.11
2022-08-05T16:38:02.446Z,59.99
2022-08-05T16:40:26.660Z,61.19
2022-08-05T16:42:56.779Z,62.13
2022-08-05T16:46:06.487Z,63.67
2022-08-05T16:48:10.969Z,64.50
2022-08-05T16:50:53.244Z,65.99
2022-08-05T16:53:23.350Z,66.01
2022-08-05T16:55:59.774Z,67.98
2022-08-05T16:58:26.876Z,67.78
2022-08-05T17:00:54.235Z,67.58
2022-08-05T17:03:22.179Z,66.45
2022-08-05T17:05:53.909Z,65.37
2022-08-05T17:08:35.886Z,65.92
2022-08-05T17:11:03.812Z,64.98
2022-08-05T17:13:37.382Z,65.14
2022-08-05T17:16:29.770Z,66.10
2022-08-05T17:18:55.808Z,69.08
2022-08-05T17:21:23.767Z,69.58
2022-08-05T17:24:03.099Z,69.62
2022-08-05T17:26:33.309Z,70.64
2022-08-05T17:29:00.396Z,71.18
2022-08-05T17:31:41.491Z,72.00
2022-08-05T17:34:21.603Z,73.18
2022-08-05T17:37:00.159Z,73.55
2022-08-05T17:39:34.607Z,74.02
2022-08-05T17:42:19.658Z,73.61
2022-08-05T17:44:51.417Z,73.30
2022-08-05T17:47:22.138Z,72.75
2022-08-05T17:49:59.715Z,73.13
2022-08-05T17:52:32.680Z,72.33
2022-08-05T17:55:00.625Z,72.07
2022-08-05T17:57:30.213Z,72.50
2022-08-05T18:00:03.315Z,73.65
2022-08-05T18:02:32.647Z,73.28
2022-08-05T18:05:02.876Z,73.27
2022-08-05T18:07:41.909Z,74.33
2022-08-05T18:10:11.381Z,75.44
2022-08-05T18:12:39.317Z,75.15
2022-08-05T18:15:06.992Z,75.09
2022-08-05T18:17:59.678Z,74.65
2022-08-05T18:20:29.267Z,74.69
2022-08-05T18:23:09.456Z,74.69
2022-08-05T18:25:44.954Z,74.37
2022-08-05T18:28:17.525Z,73.96
2022-08-05T18:30:45.512Z,73.65
2022-08-05T18:33:22.999Z,73.39
2022-08-05T18:36:00.981Z,73.04
2022-08-05T18:38:31.226Z,72.89
2022-08-05T18:41:53.860Z,72.85
2022-08-05T18:43:48.402Z,72.98
2022-08-05T18:46:19.779Z,73.48
2022-08-05T18:48:52.257Z,73.46
2022-08-05T18:52:04.543Z,74.57
2022-08-05T18:54:26.478Z,74.60
2022-08-05T18:56:57.216Z,74.52
2022-08-05T18:59:43.058Z,74.82
2022-08-05T19:02:26.980Z,75.51
2022-08-05T19:05:02.914Z,75.20
2022-08-05T19:07:45.861Z,75.37
2022-08-05T19:10:14.972Z,75.27
2022-08-05T19:12:43.103Z,73.88
2022-08-05T19:15:25.251Z,72.52
2022-08-05T19:18:08.185Z,70.23
2022-08-05T19:20:41.149Z,69.16
2022-08-05T19:24:04.350Z,68.96
2022-08-05T19:26:01.912Z,68.36
2022-08-05T19:28:30.928Z,69.10
2022-08-05T19:30:58.094Z,68.97
2022-08-05T19:33:35.961Z,68.68
2022-08-05T19:36:07.141Z,68.94
2022-08-05T19:38:36.339Z,69.08
2022-08-05T19:41:06.777Z,68.48
2022-08-05T19:44:05.862Z,68.23
2022-08-05T19:46:29.754Z,67.66
2022-08-05T19:49:03.219Z,67.27
2022-08-05T19:52:09.285Z,67.07
2022-08-05T19:54:21.708Z,66.52
2022-08-05T19:56:55.767Z,65.54
2022-08-05T19:59:55.785Z,65.98
2022-08-05T20:02:10.203Z,66.26
2022-08-05T20:04:38.114Z,65.05
2022-08-05T20:07:13.437Z,64.78
2022-08-05T20:09:54.395Z,64.66
2022-08-05T20:12:24.925Z,64.57
2022-08-05T20:14:53.137Z,64.50
2022-08-05T20:17:23.711Z,64.68
2022-08-05T20:19:56.824Z,64.76
2022-08-05T20:22:26.746Z,64.85
2022-08-05T20:24:55.830Z,65.13
2022-08-05T20:27:26.766Z,65.11
2022-08-05T20:29:58.541Z,65.33
2022-08-05T20:32:27.083Z,65.36
2022-08-05T20:34:54.909Z,65.59
2022-08-05T20:38:05.499Z,65.74
2022-08-05T20:40:09.910Z,66.05
2022-08-05T20:42:37.112Z,66.46
2022-08-05T20:45:05.255Z,67.10
2022-08-05T20:47:33.421Z,67.20
2022-08-05T20:50:02.108Z,67.76
2022-08-05T20:52:29.969Z,68.10
2022-08-05T20:55:15.788Z,68.67
2022-08-05T20:57:45.374Z,69.17
2022-08-05T21:00:41.502Z,68.82
2022-08-05T21:03:07.440Z,68.79
2022-08-05T21:05:48.279Z,68.86
2022-08-05T21:08:33.160Z,69.58
2022-08-05T21:11:11.852Z,70.06
2022-08-05T21:13:47.945Z,70.41
2022-08-05T21:16:29.833Z,70.60
2022-08-05T21:18:59.949Z,71.27
2022-08-05T21:21:39.145Z,71.00
2022-08-05T21:24:15.421Z,71.78
2022-08-05T21:26:50.504Z,72.40
2022-08-05T21:29:23.463Z,73.63
2022-08-05T21:31:54.534Z,74.13
2022-08-05T21:34:23.130Z,74.81
2022-08-05T21:36:51.634Z,75.22
2022-08-05T21:39:26.971Z,75.29
2022-08-05T21:42:01.483Z,76.02
2022-08-05T21:44:32.452Z,76.31
2022-08-05T21:47:00.155Z,76.81
2022-08-05T21:49:58.585Z,77.21
2022-08-05T21:52:22.299Z,77.40
2022-08-05T21:54:56.799Z,77.25
2022-08-05T21:57:32.579Z,77.32
2022-08-05T22:00:06.438Z,77.68
2022-08-05T22:02:34.687Z,77.78
2022-08-05T22:05:01.836Z,77.68
2022-08-05T22:07:40.329Z,78.33
2022-08-05T22:10:25.593Z,78.76
2022-08-05T22:12:58.912Z,78.83
2022-08-05T22:16:02.729Z,79.70
2022-08-05T22:18:14.457Z,79.78
2022-08-05T22:20:42.932Z,79.94
2022-08-05T22:24:02.867Z,80.25
2022-08-05T22:26:35.533Z,80.51
2022-08-05T22:29:02.828Z,81.33
2022-08-05T22:31:30.869Z,81.59
2022-08-05T22:34:20.123Z,82.39
2022-08-05T22:36:55.932Z,82.87
2022-08-05T22:39:23.178Z,82.91
2022-08-05T22:42:10.353Z,83.44
2022-08-05T22:44:37.814Z,83.39
2022-08-05T22:47:05.827Z,83.61
2022-08-05T22:50:20.986Z,84.19
2022-08-05T22:52:30.341Z,84.28
2022-08-05T22:55:02.306Z,84.38
2022-08-05T22:57:36.323Z,83.55
2022-08-05T23:00:08.950Z,83.39
2022-08-05T23:02:37.612Z,83.24
2022-08-05T23:05:14.801Z,83.32
2022-08-05T23:07:45.377Z,83.15
2022-08-05T23:10:16.404Z,82.75
2022-08-05T23:12:54.454Z,83.05
2022-08-05T23:15:29.207Z,83.31
2022-08-05T23:18:00.609Z,82.92
2022-08-05T23:20:31.419Z,83.16
2022-08-05T23:22:59.769Z,82.14
2022-08-05T23:25:51.217Z,81.31
2022-08-05T23:28:15.976Z,81.29
2022-08-05T23:30:53.831Z,80.93
2022-08-05T23:33:26.067Z,80.27
2022-08-05T23:36:10.073Z,80.51
2022-08-05T23:38:38.111Z,80.08
2022-08-05T23:41:05.325Z,79.84
2022-08-05T23:44:03.739Z,79.48
2022-08-05T23:46:22.124Z,79.32
2022-08-05T23:49:00.568Z,78.59
2022-08-05T23:51:52.449Z,77.76
2022-08-05T23:54:25.516Z,77.83
2022-08-05T23:57:03.635Z,77.73
